Jugendreisen

Hotel Hersonissos

Direkt zu den Terminen & Preisen
Super Frühbucherrabatt

Infos
Strand: 450 m
Disco: 100 m
Shopping: 100 m
Gepäckraum
Dusche
Gratis W-LAN
Safe gg. Gebühr
Pool
Gratis Klimaanlage
Balkon
SAT-TV
All inclusive
 
Hotelbilder
Die Lage
Das 4 Sterne Hotel Hersonissos ist sowohl für einen Badeurlaub, als auch für einen Partyurlaub bestens geeignet. In unmittelbarer Nähe findet ihr den Strand, den Yachthafen sowie zahlreiche kleine Läden und Boutiquen. Diskotheken wie der New York Beach Club und schicke Beachbars sind nur wenigen Gehminuten von eurem Hotel entfernt.
Eure Zimmer
Alle Zimmer sind geräumig mit Dusche oder Badewanne und WC ausgestattet. Zudem gibt es einen Safe und einen Schreibtisch. Die Zimmer verfügen über eine Klimaanlage, so könnt ihr euch trotz der griechischen Temperaturen abkühlen. Telefon, Fernseher und Radio sind ebenfalls vorhanden.
Ausstattung
Das Hotel bietet euch eine Bar und ein Restaurant, in dem ihr die Mahlzeiten einnehmen könnt. Zu eurem Zimmer fahrt ihr bequem mit dem Lift. Der große Außenpool ist für heiße Sonnenstunden gedacht, damit ihr euch so richtig abkühlen könnt und gleichzeitig den einen oder anderen Drink an der hauseigenen Poolbar zu euch nehmen könnt. Die Sonnenterasse lädt euch zum Chillen und Verweilen ein, bevor es abends auf die Partys geht. Um in Verbindung mit euren Freunden zu bleiben, gibt es im ganzen Hotel freies WLAN.
Eure Verpflegung
Jeden Morgen habt ihr ein leckeres Schlemmer-Frühstück in Buffetform und zusätzlich Lunch gegen Mittag. Tagsüber könnt ihr unbegrenzt kleine Snacks und Kuchen zu euch nehmen, bevor es am Abend zum griechischen Buffet geht. Zwischen 10:00 Uhr und 23:00 Uhr könnt ihr euch Softdrinks, Cocktails und lokale Alkoholika bestellen, so viel wie ihr möchtet.
Abflughäfen
Abflughäfen
Basel
Berlin-Schönefeld
Berlin-Tegel
Bremen
Dortmund
Dresden
Düsseldorf
Erfurt
Frankfurt/Main
Hamburg
Hannover
Innsbruck
Karlsruhe/Baden-Baden
Köln/Bonn
Leipzig/Halle
Luxemburg
München
Münster/Osnabrück
Nürnberg
Paderborn/Lippstadt
Salzburg
Stuttgart
Wien
Zürich
Termine & Preise
Reiseart:
Flug
Tage bitte wählen:
Termin Preis
Preise für 2021
Mai
02.05 - 09.05.2021 679  639 € nur noch wenige Plätze
04.05 - 11.05.2021 679  639 € nur noch wenige Plätze
06.05 - 13.05.2021 679  639 € nur noch wenige Plätze
09.05 - 16.05.2021 679  639 € Expressangebot holen
11.05 - 18.05.2021 679  639 € Expressangebot holen
13.05 - 20.05.2021 679  639 € Expressangebot holen
16.05 - 23.05.2021 679  639 € Expressangebot holen
18.05 - 25.05.2021 679  639 € Expressangebot holen
20.05 - 27.05.2021 679  639 € Expressangebot holen
23.05 - 30.05.2021 679  639 € Expressangebot holen
25.05 - 01.06.2021 679  639 € Expressangebot holen
27.05 - 03.06.2021 699  649 € Expressangebot holen
30.05 - 06.06.2021 719  669 € Expressangebot holen
Juni
01.06 - 08.06.2021 739  689 € Expressangebot holen
03.06 - 10.06.2021 759  709 € Expressangebot holen
06.06 - 13.06.2021 759  709 € Expressangebot holen
08.06 - 15.06.2021 759  709 € Expressangebot holen
10.06 - 17.06.2021 769  719 € Expressangebot holen
13.06 - 20.06.2021 799  739 € Expressangebot holen
15.06 - 22.06.2021 809  759 € Expressangebot holen
17.06 - 24.06.2021 819  759 € Expressangebot holen
20.06 - 27.06.2021 819  759 € Expressangebot holen
22.06 - 29.06.2021 819  759 € Expressangebot holen
24.06 - 01.07.2021 819  759 € Expressangebot holen
27.06 - 04.07.2021 819  759 € Expressangebot holen
29.06 - 06.07.2021 819  759 € Expressangebot holen
Juli
01.07 - 08.07.2021 819  759 € Expressangebot holen
04.07 - 11.07.2021 869  809 € Expressangebot holen
06.07 - 13.07.2021 869  809 € Expressangebot holen
08.07 - 15.07.2021 869  809 € Expressangebot holen
11.07 - 18.07.2021 899  839 € Expressangebot holen
13.07 - 20.07.2021 939  869 € Expressangebot holen
15.07 - 22.07.2021 969  889 € Expressangebot holen
18.07 - 25.07.2021 979  909 € Expressangebot holen
20.07 - 27.07.2021 979  909 € Expressangebot holen
22.07 - 29.07.2021 979  909 € Expressangebot holen
25.07 - 01.08.2021 979  909 € Expressangebot holen
27.07 - 03.08.2021 979  909 € Expressangebot holen
29.07 - 05.08.2021 979  909 € Expressangebot holen
August
01.08 - 08.08.2021 979  909 € Expressangebot holen
03.08 - 10.08.2021 979  909 € Expressangebot holen
05.08 - 12.08.2021 979  909 € Expressangebot holen
08.08 - 15.08.2021 979  909 € Expressangebot holen
10.08 - 17.08.2021 959  879 € Expressangebot holen
12.08 - 19.08.2021 959  879 € Expressangebot holen
15.08 - 22.08.2021 959  879 € Expressangebot holen
17.08 - 24.08.2021 959  879 € Expressangebot holen
19.08 - 26.08.2021 959  879 € Expressangebot holen
22.08 - 29.08.2021 929  849 € Expressangebot holen
24.08 - 31.08.2021 889  829 € Expressangebot holen
26.08 - 02.09.2021 859  799 € Expressangebot holen
29.08 - 05.09.2021 849  789 € Expressangebot holen
31.08 - 07.09.2021 849  789 € Expressangebot holen
September
02.09 - 09.09.2021 849  789 € Expressangebot holen
05.09 - 12.09.2021 849  789 € Expressangebot holen
07.09 - 14.09.2021 849  789 € Expressangebot holen
09.09 - 16.09.2021 849  789 € Expressangebot holen
12.09 - 19.09.2021 819  769 € Expressangebot holen
14.09 - 21.09.2021 809  749 € Expressangebot holen
16.09 - 23.09.2021 789  739 € Expressangebot holen
19.09 - 26.09.2021 789  739 € Expressangebot holen
21.09 - 28.09.2021 789  739 € Expressangebot holen
Preise für 2022
Mai
03.05 - 10.05.2022 719  669 € Expressangebot holen
05.05 - 12.05.2022 719  669 € Expressangebot holen
08.05 - 15.05.2022 719  669 € Expressangebot holen
10.05 - 17.05.2022 719  669 € Expressangebot holen
12.05 - 19.05.2022 719  669 € Expressangebot holen
15.05 - 22.05.2022 719  669 € Expressangebot holen
17.05 - 24.05.2022 719  669 € Expressangebot holen
19.05 - 26.05.2022 719  669 € Expressangebot holen
22.05 - 29.05.2022 719  669 € Expressangebot holen
24.05 - 31.05.2022 719  669 € Expressangebot holen
26.05 - 02.06.2022 729  679 € Expressangebot holen
29.05 - 05.06.2022 749  699 € Expressangebot holen
31.05 - 07.06.2022 769  709 € Expressangebot holen
Juni
02.06 - 09.06.2022 799  749 € Expressangebot holen
05.06 - 12.06.2022 799  749 € Expressangebot holen
07.06 - 14.06.2022 799  749 € Expressangebot holen
09.06 - 16.06.2022 799  749 € Expressangebot holen
12.06 - 19.06.2022 829  769 € Expressangebot holen
14.06 - 21.06.2022 849  779 € Expressangebot holen
16.06 - 23.06.2022 859  799 € Expressangebot holen
19.06 - 26.06.2022 859  799 € Expressangebot holen
21.06 - 28.06.2022 859  799 € Expressangebot holen
23.06 - 30.06.2022 859  799 € Expressangebot holen
26.06 - 03.07.2022 859  799 € Expressangebot holen
28.06 - 05.07.2022 859  799 € Expressangebot holen
30.06 - 07.07.2022 859  799 € Expressangebot holen
Juli
03.07 - 10.07.2022 909  849 € Expressangebot holen
05.07 - 12.07.2022 909  849 € Expressangebot holen
07.07 - 14.07.2022 909  849 € Expressangebot holen
10.07 - 17.07.2022 929  859 € Expressangebot holen
12.07 - 19.07.2022 959  889 € Expressangebot holen
14.07 - 21.07.2022 989  909 € Expressangebot holen
17.07 - 24.07.2022 1019  939 € Expressangebot holen
19.07 - 26.07.2022 1019  939 € Expressangebot holen
21.07 - 28.07.2022 1019  939 € Expressangebot holen
24.07 - 31.07.2022 1019  939 € Expressangebot holen
26.07 - 02.08.2022 1019  939 € Expressangebot holen
28.07 - 04.08.2022 1019  939 € Expressangebot holen
31.07 - 07.08.2022 1019  939 € Expressangebot holen
August
02.08 - 09.08.2022 1019  939 € Expressangebot holen
04.08 - 11.08.2022 1019  939 € Expressangebot holen
07.08 - 14.08.2022 1019  939 € Expressangebot holen
09.08 - 16.08.2022 1019  939 € Expressangebot holen
11.08 - 18.08.2022 999  919 € Expressangebot holen
14.08 - 21.08.2022 999  919 € Expressangebot holen
16.08 - 23.08.2022 999  919 € Expressangebot holen
18.08 - 25.08.2022 999  919 € Expressangebot holen
21.08 - 28.08.2022 979  899 € Expressangebot holen
23.08 - 30.08.2022 949  879 € Expressangebot holen
25.08 - 01.09.2022 919  849 € Expressangebot holen
28.08 - 04.09.2022 889  819 € Expressangebot holen
30.08 - 06.09.2022 889  819 € Expressangebot holen
September
01.09 - 08.09.2022 889  819 € Expressangebot holen
04.09 - 11.09.2022 889  819 € Expressangebot holen
06.09 - 13.09.2022 889  819 € Expressangebot holen
08.09 - 15.09.2022 889  819 € Expressangebot holen
11.09 - 18.09.2022 869  809 € Expressangebot holen
13.09 - 20.09.2022 849  789 € Expressangebot holen
15.09 - 22.09.2022 839  779 € Expressangebot holen
18.09 - 25.09.2022 829  769 € Expressangebot holen
20.09 - 27.09.2022 829  769 € Expressangebot holen
Alle Flugpreise exklusive Transfer, außer bei Goldstrand und Sonnenstrand.
Erlebe einen super Urlaub mit FUN-ABI ab 639,00 € und 939,00 €.